createdAt,value
2022-08-22T00:01:23.949Z,5.30
2022-08-22T00:03:12.735Z,7.32
2022-08-22T00:03:16.334Z,5.07
2022-08-22T00:04:18.940Z,6.60
2022-08-22T00:07:06.381Z,5.07
2022-08-22T00:09:58.012Z,5.47
2022-08-22T00:12:33.486Z,4.47
2022-08-22T00:15:42.301Z,5.55
2022-08-22T00:18:11.941Z,5.63
2022-08-22T00:21:32.732Z,6.55
2022-08-22T00:24:09.538Z,5.10
2022-08-22T00:27:00.965Z,4.50
2022-08-22T00:29:46.494Z,5.80
2022-08-22T00:32:28.062Z,7.13
2022-08-22T00:35:06.019Z,6.10
2022-08-22T00:37:42.229Z,6.43
2022-08-22T00:40:25.189Z,3.70
2022-08-22T00:43:20.214Z,6.20
2022-08-22T00:46:06.191Z,5.07
2022-08-22T00:49:13.182Z,4.70
2022-08-22T00:52:27.456Z,5.60
2022-08-22T00:55:10.086Z,5.95
2022-08-22T00:58:00.173Z,7.88
2022-08-22T01:00:35.255Z,12.50
2022-08-22T01:03:26.273Z,5.90
2022-08-22T01:06:21.069Z,7.18
2022-08-22T01:09:10.726Z,9.03
2022-08-22T01:11:45.543Z,6.80
2022-08-22T01:14:34.412Z,6.15
2022-08-22T01:17:45.028Z,8.43
2022-08-22T01:20:50.361Z,7.20
2022-08-22T01:23:37.530Z,13.75
2022-08-22T01:26:49.373Z,23.20
2022-08-22T01:29:56.392Z,37.13
2022-08-22T01:32:43.442Z,45.00
2022-08-22T01:35:29.717Z,37.75
2022-08-22T01:38:19.506Z,23.15
2022-08-22T01:41:03.587Z,17.15
2022-08-22T01:44:15.086Z,12.57
2022-08-22T01:46:56.413Z,11.32
2022-08-22T01:49:38.239Z,12.15
2022-08-22T01:52:19.536Z,11.60
2022-08-22T01:55:03.774Z,11.82
2022-08-22T01:57:32.604Z,7.93
2022-08-22T02:00:09.474Z,10.65
2022-08-22T02:03:08.523Z,12.00
2022-08-22T02:05:54.186Z,5.90
2022-08-22T02:08:37.745Z,4.03
2022-08-22T02:11:32.730Z,6.47
2022-08-22T02:14:41.346Z,8.18
2022-08-22T02:17:20.246Z,6.93
2022-08-22T02:20:10.539Z,6.50
2022-08-22T02:22:54.522Z,6.90
2022-08-22T02:25:26.748Z,7.57
2022-08-22T02:28:11.673Z,5.68
2022-08-22T02:31:17.057Z,6.13
2022-08-22T02:34:21.433Z,6.07
2022-08-22T02:36:58.224Z,5.75
2022-08-22T02:39:39.469Z,6.05
2022-08-22T02:42:34.743Z,5.18
2022-08-22T02:48:23.695Z,3.22
2022-08-22T02:53:40.027Z,6.38
2022-08-22T02:56:17.654Z,6.13
2022-08-22T02:59:12.896Z,10.15
2022-08-22T03:01:45.190Z,11.48
2022-08-22T03:04:32.043Z,3.28
2022-08-22T03:07:18.921Z,3.17
2022-08-22T03:09:57.306Z,2.92
2022-08-22T03:12:57.432Z,3.50
2022-08-22T03:15:40.622Z,6.75
2022-08-22T03:18:29.676Z,6.82
2022-08-22T03:21:14.623Z,3.47
2022-08-22T03:23:50.102Z,38.67
2022-08-22T03:26:28.605Z,2.45
2022-08-22T03:29:17.585Z,5.78
2022-08-22T03:32:07.264Z,3.22
2022-08-22T03:34:37.111Z,4.10
2022-08-22T03:37:41.325Z,2.30
2022-08-22T03:40:31.814Z,5.45
2022-08-22T03:43:15.310Z,2.78
2022-08-22T03:46:37.223Z,2.35
2022-08-22T03:49:42.693Z,5.93
2022-08-22T03:52:29.847Z,6.93
2022-08-22T03:55:04.203Z,5.22
2022-08-22T03:57:53.727Z,2.58
2022-08-22T04:01:06.203Z,2.45
2022-08-22T04:04:11.994Z,1.80
2022-08-22T04:06:49.245Z,25.15
2022-08-22T04:09:43.570Z,9.68
2022-08-22T04:12:30.200Z,2.97
2022-08-22T04:15:14.998Z,4.88
2022-08-22T04:18:27.693Z,6.15
2022-08-22T04:21:08.141Z,5.73
2022-08-22T04:24:07.188Z,3.67
2022-08-22T04:26:48.757Z,7.03
2022-08-22T04:29:29.410Z,5.97
2022-08-22T04:32:26.015Z,3.53
2022-08-22T04:35:03.909Z,4.35
2022-08-22T04:37:54.603Z,12.50
2022-08-22T04:40:56.455Z,4.03
2022-08-22T04:43:43.321Z,3.90
2022-08-22T04:46:24.791Z,5.60
2022-08-22T04:49:42.354Z,8.68
2022-08-22T04:52:46.083Z,6.20
2022-08-22T04:55:27.731Z,4.60
2022-08-22T04:58:26.363Z,2.92
2022-08-22T05:01:13.815Z,5.78
2022-08-22T05:03:52.015Z,6.40
2022-08-22T05:06:24.323Z,8.13
2022-08-22T05:08:53.689Z,5.22
2022-08-22T05:11:25.293Z,7.32
2022-08-22T05:14:01.485Z,4.85
2022-08-22T05:16:39.994Z,4.63
2022-08-22T05:19:17.458Z,4.32
2022-08-22T05:21:51.317Z,3.60
2022-08-22T05:24:37.145Z,6.85
2022-08-22T05:27:12.894Z,5.28
2022-08-22T05:29:46.325Z,4.05
2022-08-22T05:32:26.993Z,4.63
2022-08-22T05:35:01.369Z,5.40
2022-08-22T05:37:48.171Z,2.55
2022-08-22T05:40:24.110Z,11.23
2022-08-22T05:42:54.615Z,2.63
2022-08-22T05:45:24.633Z,3.50
2022-08-22T05:48:04.093Z,3.95
2022-08-22T05:50:41.593Z,3.90
2022-08-22T05:53:39.606Z,4.38
2022-08-22T05:56:32.436Z,4.03
2022-08-22T05:59:21.078Z,4.13
2022-08-22T06:01:52.760Z,3.78
2022-08-22T06:04:32.165Z,3.58
2022-08-22T06:07:10.145Z,5.50
2022-08-22T06:09:50.006Z,5.10
2022-08-22T06:12:43.796Z,3.97
2022-08-22T06:15:35.571Z,3.58
2022-08-22T06:18:12.679Z,7.35
2022-08-22T06:20:48.683Z,3.95
2022-08-22T06:23:27.423Z,4.32
2022-08-22T06:26:00.520Z,3.53
2022-08-22T06:28:39.135Z,3.40
2022-08-22T06:31:37.596Z,3.33
2022-08-22T06:34:06.125Z,13.60
2022-08-22T06:36:38.165Z,4.47
2022-08-22T06:39:28.047Z,3.30
2022-08-22T06:42:16.721Z,11.70
2022-08-22T06:44:55.136Z,9.57
2022-08-22T06:47:29.486Z,6.65
2022-08-22T06:50:07.287Z,8.05
2022-08-22T06:53:14.840Z,9.50
2022-08-22T06:55:49.585Z,2.95
2022-08-22T06:58:22.756Z,5.13
2022-08-22T07:01:05.760Z,5.85
2022-08-22T07:03:48.325Z,5.20
2022-08-22T07:06:20.158Z,9.55
2022-08-22T07:08:54.563Z,4.22
2022-08-22T07:11:32.517Z,3.42
2022-08-22T07:14:07.066Z,5.43
2022-08-22T07:16:43.286Z,4.57
2022-08-22T07:19:27.795Z,4.70
2022-08-22T07:21:57.234Z,2.03
2022-08-22T07:24:32.923Z,3.95
2022-08-22T07:27:09.589Z,3.90
2022-08-22T07:30:10.265Z,3.20
2022-08-22T07:33:25.855Z,7.97
2022-08-22T07:35:59.870Z,4.40
2022-08-22T07:38:45.779Z,3.38
2022-08-22T07:41:25.830Z,7.93
2022-08-22T07:44:16.120Z,6.53
2022-08-22T07:46:53.517Z,5.22
2022-08-22T07:49:26.894Z,2.03
2022-08-22T07:52:00.035Z,7.35
2022-08-22T07:54:47.747Z,4.80
2022-08-22T07:57:25.660Z,2.80
2022-08-22T08:00:02.129Z,4.82
2022-08-22T08:02:48.026Z,5.30
2022-08-22T08:05:18.252Z,4.25
2022-08-22T08:07:48.650Z,4.32
2022-08-22T08:10:24.544Z,5.38
2022-08-22T08:13:02.391Z,3.78
2022-08-22T08:15:36.534Z,3.53
2022-08-22T08:18:15.140Z,7.93
2022-08-22T08:20:43.883Z,5.15
2022-08-22T08:23:23.641Z,4.28
2022-08-22T08:26:08.401Z,2.97
2022-08-22T08:28:46.975Z,3.20
2022-08-22T08:31:25.736Z,5.22
2022-08-22T08:34:10.282Z,3.58
2022-08-22T08:36:49.432Z,4.65
2022-08-22T08:39:38.442Z,12.38
2022-08-22T08:42:28.222Z,4.18
2022-08-22T08:45:16.267Z,5.68
2022-08-22T08:48:06.170Z,7.30
2022-08-22T08:50:57.500Z,6.38
2022-08-22T08:54:02.292Z,20.48
2022-08-22T08:57:00.442Z,5.18
2022-08-22T09:00:00.654Z,5.05
2022-08-22T09:02:47.706Z,2.40
2022-08-22T09:05:44.006Z,4.63
2022-08-22T09:08:36.681Z,6.13
2022-08-22T09:11:28.343Z,4.75
2022-08-22T09:14:24.144Z,15.25
2022-08-22T09:17:22.860Z,32.53
2022-08-22T09:20:17.593Z,12.63
2022-08-22T09:23:04.603Z,18.90
2022-08-22T09:25:46.149Z,17.65
2022-08-22T09:28:30.765Z,7.72
2022-08-22T09:31:16.988Z,5.53
2022-08-22T09:34:13.049Z,5.05
2022-08-22T09:37:03.630Z,3.63
2022-08-22T09:39:51.288Z,2.33
2022-08-22T09:42:38.427Z,3.10
2022-08-22T09:45:34.381Z,5.55
2022-08-22T09:48:08.529Z,7.88
2022-08-22T09:50:54.555Z,5.03
2022-08-22T09:53:58.857Z,4.47
2022-08-22T09:56:53.737Z,5.80
2022-08-22T09:59:33.717Z,17.63
2022-08-22T10:02:15.493Z,19.75
2022-08-22T10:04:53.070Z,33.30
2022-08-22T10:07:52.952Z,5.65
2022-08-22T10:10:27.035Z,4.15
2022-08-22T10:13:11.205Z,5.28
2022-08-22T10:15:58.143Z,5.60
2022-08-22T10:19:12.330Z,4.68
2022-08-22T10:21:49.599Z,3.05
2022-08-22T10:24:31.697Z,7.45
2022-08-22T10:27:14.846Z,3.40
2022-08-22T10:29:55.073Z,21.67
2022-08-22T10:32:59.876Z,40.92
2022-08-22T10:35:56.110Z,22.00
2022-08-22T10:38:46.202Z,11.75
2022-08-22T10:41:40.360Z,14.00
2022-08-22T10:44:24.590Z,9.30
2022-08-22T10:46:59.423Z,8.63
2022-08-22T10:50:00.011Z,3.97
2022-08-22T10:52:33.429Z,3.85
2022-08-22T10:55:13.182Z,6.72
2022-08-22T10:57:52.136Z,23.63
2022-08-22T11:00:49.956Z,7.45
2022-08-22T11:03:39.885Z,6.90
2022-08-22T11:06:34.753Z,10.23
2022-08-22T11:09:14.245Z,4.40
2022-08-22T11:12:13.443Z,3.50
2022-08-22T11:14:50.824Z,4.15
2022-08-22T11:17:40.616Z,4.78
2022-08-22T11:20:27.798Z,5.82
2022-08-22T11:23:28.844Z,4.55
2022-08-22T11:26:47.315Z,5.05
2022-08-22T11:29:52.474Z,4.07
2022-08-22T11:32:36.247Z,6.53
2022-08-22T11:35:23.543Z,2.22
2022-08-22T11:38:32.583Z,5.35
2022-08-22T11:41:27.546Z,4.05
2022-08-22T11:44:03.398Z,5.20
2022-08-22T11:46:36.747Z,5.60
2022-08-22T11:49:31.584Z,4.45
2022-08-22T11:52:09.868Z,4.50
2022-08-22T11:55:12.666Z,5.43
2022-08-22T11:57:46.373Z,4.65
2022-08-22T12:00:34.878Z,4.10
2022-08-22T12:03:24.593Z,4.75
2022-08-22T12:06:15.391Z,3.78
2022-08-22T12:08:53.153Z,6.65
2022-08-22T12:11:59.665Z,16.83
2022-08-22T12:14:46.114Z,12.50
2022-08-22T12:17:55.916Z,6.13
2022-08-22T12:20:48.503Z,14.73
2022-08-22T12:24:01.110Z,13.35
2022-08-22T12:26:51.272Z,10.63
2022-08-22T12:29:44.628Z,16.27
2022-08-22T12:32:38.018Z,15.20
2022-08-22T12:35:40.911Z,25.77
2022-08-22T12:38:32.812Z,19.67
2022-08-22T12:41:37.639Z,14.88
2022-08-22T12:44:30.898Z,8.68
2022-08-22T12:47:15.224Z,26.25
2022-08-22T12:50:14.305Z,23.25
2022-08-22T12:53:00.603Z,31.83
2022-08-22T12:55:46.035Z,59.15
2022-08-22T12:58:51.322Z,55.10
2022-08-22T13:01:23.364Z,33.67
2022-08-22T13:04:08.876Z,41.47
2022-08-22T13:09:20.669Z,61.17
2022-08-22T13:12:03.430Z,39.55
2022-08-22T13:17:24.450Z,44.72
2022-08-22T13:20:08.655Z,45.30
2022-08-22T13:22:45.033Z,31.70
2022-08-22T13:25:26.170Z,26.40
2022-08-22T13:28:04.414Z,16.92
2022-08-22T13:30:39.961Z,18.98
2022-08-22T13:33:14.954Z,29.98
2022-08-22T13:35:55.342Z,20.45
2022-08-22T13:38:28.826Z,18.63
2022-08-22T13:40:59.374Z,17.75
2022-08-22T13:43:53.137Z,17.27
2022-08-22T13:46:31.079Z,20.63
2022-08-22T13:49:09.104Z,20.13
2022-08-22T13:51:54.474Z,20.20
2022-08-22T13:54:45.304Z,22.95
2022-08-22T13:57:31.213Z,23.40
2022-08-22T14:00:28.669Z,24.05
2022-08-22T14:03:05.656Z,20.80
2022-08-22T14:05:55.409Z,18.95
2022-08-22T14:08:32.781Z,18.08
2022-08-22T14:11:08.312Z,16.95
2022-08-22T14:14:02.007Z,20.90
2022-08-22T14:16:38.812Z,15.27
2022-08-22T14:19:11.380Z,15.45
2022-08-22T14:21:52.078Z,12.30
2022-08-22T14:24:29.790Z,16.08
2022-08-22T14:27:06.962Z,14.85
2022-08-22T14:30:06.848Z,16.67
2022-08-22T14:33:05.185Z,16.17
2022-08-22T14:35:43.269Z,19.77
2022-08-22T14:38:27.362Z,16.85
2022-08-22T14:41:52.332Z,16.48
2022-08-22T14:44:39.508Z,19.88
2022-08-22T14:47:54.659Z,19.15
2022-08-22T14:50:13.039Z,21.27
2022-08-22T14:52:45.315Z,22.60
2022-08-22T14:55:27.174Z,36.05
2022-08-22T14:58:07.694Z,42.33
2022-08-22T15:00:57.810Z,68.25
2022-08-22T15:03:33.883Z,56.63
2022-08-22T15:06:04.237Z,43.22
2022-08-22T15:08:49.534Z,58.40
2022-08-22T15:11:23.918Z,55.97
2022-08-22T15:14:14.424Z,57.15
2022-08-22T15:17:02.486Z,72.30
2022-08-22T15:19:36.525Z,95.53
2022-08-22T15:22:14.243Z,80.35
2022-08-22T15:24:56.341Z,74.05
2022-08-22T15:27:27.739Z,98.03
2022-08-22T15:30:06.774Z,94.40
2022-08-22T15:32:49.660Z,95.78
2022-08-22T15:35:32.155Z,79.07
2022-08-22T15:38:11.249Z,108.07
2022-08-22T15:40:46.766Z,96.20
2022-08-22T15:43:24.991Z,113.95
2022-08-22T15:46:17.913Z,132.35
2022-08-22T15:49:01.507Z,129.85
2022-08-22T15:52:06.162Z,137.40
2022-08-22T15:54:51.237Z,137.25
2022-08-22T15:57:28.477Z,137.38
2022-08-22T16:00:27.858Z,121.68
2022-08-22T16:03:02.632Z,159.82
2022-08-22T16:05:42.993Z,161.93
2022-08-22T16:08:18.124Z,113.60
2022-08-22T16:11:14.905Z,108.35
2022-08-22T16:13:45.478Z,83.07
2022-08-22T16:16:26.291Z,60.30
2022-08-22T16:18:54.947Z,47.20
2022-08-22T16:21:26.630Z,47.78
2022-08-22T16:23:57.194Z,38.03
2022-08-22T16:26:39.349Z,33.72
2022-08-22T16:29:41.301Z,34.90
2022-08-22T16:32:15.708Z,25.55
2022-08-22T16:34:46.517Z,26.33
2022-08-22T16:37:22.976Z,21.00
2022-08-22T16:40:07.694Z,20.83
2022-08-22T16:42:47.794Z,26.08
2022-08-22T16:45:25.675Z,20.15
2022-08-22T16:47:58.889Z,19.38
2022-08-22T16:51:10.625Z,20.58
2022-08-22T16:53:45.765Z,24.48
2022-08-22T16:56:36.072Z,19.88
2022-08-22T16:59:23.734Z,18.92
2022-08-22T17:02:16.153Z,22.02
2022-08-22T17:05:20.703Z,17.52
2022-08-22T17:08:04.183Z,19.73
2022-08-22T17:10:36.016Z,14.88
2022-08-22T17:13:26.472Z,15.27
2022-08-22T17:16:33.858Z,18.05
2022-08-22T17:19:32.965Z,18.85
2022-08-22T17:22:29.080Z,18.23
2022-08-22T17:25:45.311Z,18.83
2022-08-22T17:28:21.943Z,25.13
2022-08-22T17:31:02.604Z,40.47
2022-08-22T17:33:59.894Z,147.40
2022-08-22T17:36:51.724Z,35.45
2022-08-22T17:39:56.019Z,24.92
2022-08-22T17:42:36.118Z,56.38
2022-08-22T17:45:16.670Z,26.40
2022-08-22T17:47:53.230Z,17.48
2022-08-22T17:50:35.233Z,26.42
2022-08-22T17:53:16.098Z,33.55
2022-08-22T17:56:06.883Z,13.07
2022-08-22T17:59:08.224Z,130.80
2022-08-22T18:01:45.162Z,16.77
2022-08-22T18:04:23.712Z,31.27
2022-08-22T18:07:06.213Z,16.92
2022-08-22T18:10:00.282Z,91.22
2022-08-22T18:12:46.783Z,22.30
2022-08-22T18:15:40.531Z,22.60
2022-08-22T18:18:30.366Z,38.40
2022-08-22T18:21:30.391Z,18.02
2022-08-22T18:24:06.411Z,16.92
2022-08-22T18:26:47.322Z,21.27
2022-08-22T18:29:21.211Z,18.73
2022-08-22T18:32:03.439Z,38.65
2022-08-22T18:34:53.804Z,17.13
2022-08-22T18:37:35.324Z,16.50
2022-08-22T18:40:29.776Z,15.15
2022-08-22T18:43:19.092Z,31.70
2022-08-22T18:45:47.536Z,12.38
2022-08-22T18:49:05.449Z,42.88
2022-08-22T18:51:38.211Z,15.40
2022-08-22T18:54:11.694Z,17.20
2022-08-22T18:56:51.763Z,20.77
2022-08-22T18:59:47.666Z,12.70
2022-08-22T19:02:34.735Z,58.45
2022-08-22T19:05:34.146Z,44.97
2022-08-22T19:08:19.918Z,19.15
2022-08-22T19:11:14.696Z,26.75
2022-08-22T19:14:09.552Z,14.63
2022-08-22T19:17:05.349Z,13.63
2022-08-22T19:20:27.872Z,13.43
2022-08-22T19:23:34.857Z,14.73
2022-08-22T19:26:24.950Z,12.95
2022-08-22T19:29:18.017Z,10.90
2022-08-22T19:32:02.608Z,14.98
2022-08-22T19:34:39.531Z,12.57
2022-08-22T19:37:32.210Z,14.95
2022-08-22T19:40:10.110Z,35.33
2022-08-22T19:42:44.804Z,16.05
2022-08-22T19:45:29.529Z,20.50
2022-08-22T19:48:14.286Z,25.58
2022-08-22T19:50:44.589Z,45.63
2022-08-22T19:53:34.376Z,18.50
2022-08-22T19:56:33.653Z,24.67
2022-08-22T19:59:21.247Z,64.82
2022-08-22T20:02:12.925Z,41.90
2022-08-22T20:04:53.364Z,63.88
2022-08-22T20:07:43.195Z,116.45
2022-08-22T20:10:17.896Z,87.95
2022-08-22T20:13:20.039Z,85.88
2022-08-22T20:16:14.171Z,29.83
2022-08-22T20:19:08.529Z,85.72
2022-08-22T20:21:47.356Z,43.20
2022-08-22T20:24:47.386Z,46.53
2022-08-22T20:27:32.527Z,20.10
2022-08-22T20:30:12.666Z,48.75
2022-08-22T20:32:51.276Z,40.97
2022-08-22T20:35:23.725Z,49.15
2022-08-22T20:38:06.979Z,16.27
2022-08-22T20:41:11.070Z,37.75
2022-08-22T20:43:53.789Z,12.52
2022-08-22T20:46:47.431Z,11.65
2022-08-22T20:49:29.490Z,26.92
2022-08-22T20:52:01.190Z,14.05
2022-08-22T20:54:35.053Z,13.68
2022-08-22T20:57:15.165Z,101.20
2022-08-22T20:59:53.151Z,66.80
2022-08-22T21:02:42.307Z,12.23
2022-08-22T21:05:13.992Z,12.50
2022-08-22T21:07:46.032Z,11.63
2022-08-22T21:10:45.893Z,12.75
2022-08-22T21:13:20.592Z,81.15
2022-08-22T21:16:32.545Z,109.15
2022-08-22T21:19:05.220Z,32.88
2022-08-22T21:21:35.629Z,12.88
2022-08-22T21:24:10.159Z,54.60
2022-08-22T21:26:50.341Z,16.70
2022-08-22T21:29:18.753Z,61.55
2022-08-22T21:31:50.209Z,32.22
2022-08-22T21:34:27.884Z,17.60
2022-08-22T21:37:03.120Z,12.48
2022-08-22T21:39:45.482Z,8.32
2022-08-22T21:42:25.102Z,10.30
2022-08-22T21:44:59.388Z,17.02
2022-08-22T21:47:33.275Z,109.72
2022-08-22T21:50:13.820Z,169.45
2022-08-22T21:53:04.373Z,50.97
2022-08-22T21:55:34.564Z,12.77
2022-08-22T21:58:13.656Z,10.38
2022-08-22T22:01:32.547Z,10.02
2022-08-22T22:04:01.677Z,79.78
2022-08-22T22:06:30.282Z,24.33
2022-08-22T22:08:59.236Z,10.00
2022-08-22T22:11:28.040Z,11.65
2022-08-22T22:13:56.807Z,13.45
2022-08-22T22:16:28.331Z,10.93
2022-08-22T22:18:57.721Z,9.95
2022-08-22T22:21:26.525Z,10.05
2022-08-22T22:23:56.446Z,37.40
2022-08-22T22:26:27.525Z,45.58
2022-08-22T22:28:59.241Z,17.63
2022-08-22T22:31:27.954Z,15.23
2022-08-22T22:33:56.722Z,12.38
2022-08-22T22:36:27.455Z,20.25
2022-08-22T22:38:56.418Z,12.18
2022-08-22T22:41:26.312Z,10.20
2022-08-22T22:43:56.295Z,12.55
2022-08-22T22:46:27.894Z,10.50
2022-08-22T22:48:58.177Z,12.85
2022-08-22T22:51:26.927Z,10.02
2022-08-22T22:53:57.484Z,11.30
2022-08-22T22:56:26.961Z,14.50
2022-08-22T22:59:00.884Z,15.10
2022-08-22T23:02:10.839Z,14.88
2022-08-22T23:04:41.929Z,12.05
2022-08-22T23:07:12.637Z,15.60
2022-08-22T23:09:45.166Z,11.55
2022-08-22T23:12:15.387Z,11.70
2022-08-22T23:14:44.500Z,20.42
2022-08-22T23:17:13.346Z,10.45
2022-08-22T23:19:42.971Z,15.20
2022-08-22T23:22:14.743Z,10.55
2022-08-22T23:24:43.584Z,11.60
2022-08-22T23:27:12.919Z,11.20
2022-08-22T23:29:42.872Z,11.52
2022-08-22T23:32:12.666Z,11.93
2022-08-22T23:34:46.544Z,13.45
2022-08-22T23:37:17.705Z,12.00
2022-08-22T23:39:46.595Z,10.40
2022-08-22T23:42:16.202Z,11.43
2022-08-22T23:44:46.135Z,13.13
2022-08-22T23:47:16.072Z,9.95
2022-08-22T23:49:45.404Z,12.38
2022-08-22T23:52:14.187Z,14.27
2022-08-22T23:54:43.141Z,11.80
2022-08-22T23:57:12.731Z,11.40
2022-08-22T23:59:48.020Z,11.48
